SLVR

Details ICAO SLVR (VVI)
Name VIRU VIRU INTL
Region Bolivia
Timezone America/La_Paz (UTC-4.0)
Plans Departing 187
Arriving 135
Stats Elevation 1,225 ft / 373 m (AMSL)
Location -17.644755° -63.135362°
Runways 1
Magnetic Variation 11.892° W
Sunrise 2017-12-15 09:33:51 UTC / 2017-12-15 05:33:51 Local
Sunset 2017-12-15 22:44:29 UTC / 2017-12-15 18:44:29 Local
Advertisement - Login to hide

Runways

ID Width Length Bearing (true) Bearing (mag) Surface Threshold Offset Overrun Length
16 148 ft / 45 m 11,519 ft / 3,511 m 147.35° 159.24° Concrete 0 ft / 0 m 197 ft / 60 m
34 148 ft / 45 m 11,519 ft / 3,511 m 327.34° 339.23° Concrete 0 ft / 0 m 197 ft / 60 m

Approach Navaids

Runway Type Ident Frequency Range Bearing (true) Bearing (mag) Slope Elevation
34 Localiser VCZ 110.90 MHz 18 nm / 33 km 327.34° 339.24° - 1,224 ft / 373 m (AMSL)
34 Glidescope VCZ 110.90 MHz 10 nm / 19 km 327.34° 339.24° 3.00° 1,224 ft / 373 m (AMSL)

Map

Weather


0- 5 10 15 20 25 30 35+ Temperature / ° C

Clouds and Precipitation
Forecast for 2017-12-15 12:00 UTC. Updated an hour ago

Ground ~20,000 ft ~40,000 ft Winds

METAR

SLVR 151200Z 28005KT 9999 FEW012 BKN200 27/25 Q1012

TAF

Not found

Frequencies

Clearance 121.80 MHz CLNC DEL
Tower 118.60 MHz TWR
Ground 121.90 MHz GND
Approach 119.70 MHz APP
Warning: Do not use this data for real-world aviation or navigation. No guarantee of current accuracy is given.